• Join FlightAware (Why Join?)
  • Login
  • US Flag 
02:00PM EDT


 

Airport Tracker/Info


-or-


 

Live Flight TrackerFlight Track Log ✈ SKW5510 ✈ 30-Apr-2013 ✈ KLIT - KORD

Flight Track Log - Related Links

Times and Time Zones

All times are in EDT time to prevent confusion due to time zone crossing. See the SKW5510 flight status page for this flight to view local times or setup timezone preferences in your user account.

Time Position Orientation Groundspeed Altitude Reporting Facility
EDT Latitude Longitude Course Direction KTS MPH feet Rate Location/Type
04:31PM 34.7133 -92.2544 17° North 180 207 1,000  Level Memphis Center
04:32PM 34.7017 -92.3453 261° West 243 280 3,500 2,100 Climbing Memphis Center
04:33PM 34.7508 -92.3919 322° Northwest 295 339 5,700 2,760 Climbing Memphis Center
04:34PM 35.0067 -92.0700 15° North  Level FlightAware Approximate
04:34PM 34.8492 -92.3764 North 289 333 9,200  Level Memphis Center
04:35PM 35.1087 -92.0462 10° North  Level FlightAware Approximate
04:35PM 34.9206 -92.3453 20° North 289 333 11,100  Level Memphis Center
04:36PM 35.2096 -92.0172 17° North  Level FlightAware Approximate
04:36PM 35.0131 -92.3144 15° North 319 367 13,100  Level Memphis Center
04:37PM 35.1011 -92.2836 16° North 331 381 15,300 1,920 Climbing Memphis Center
04:38PM 35.1956 -92.2500 16° North 345 397 17,000 1,740 Climbing Memphis Center
04:39PM 35.3003 -92.2117 17° North 350 403 18,800 1,740 Climbing Memphis Center
04:40PM 35.3989 -92.1808 14° North 350 403 20,500 1,500 Climbing Memphis Center
04:41PM 35.4972 -92.1447 17° North 363 418 21,900 1,500 Climbing Memphis Center
04:42PM 35.5958 -92.1111 15° North 363 418 23,500 1,260 Climbing Memphis Center
04:43PM 35.6964 -92.0747 16° North 363 418 24,500 1,140 Climbing Memphis Center
04:44PM 35.7969 -92.0386 16° North 376 433 25,800 1,080 Climbing Memphis Center
04:45PM 35.9039 -92.0022 15° North 381 438 26,700 840 Climbing Memphis Center
04:46PM 36.0067 -91.9633 17° North 381 438 27,500 720 Climbing Memphis Center
04:47PM 36.1133 -91.9242 17° North 387 445 28,200 780 Climbing Memphis Center
04:48PM 36.2306 -91.8878 14° North 404 465 29,100 780 Climbing Memphis Center
04:49PM 36.3394 -91.8461 17° North 414 476 29,800 660 Climbing Memphis Center
04:50PM 36.4525 -91.8042 17° North 420 483 30,500 540 Climbing Memphis Center
04:52PM 36.6333 -91.7383 16° North 427 491 31,300 540 Climbing Kansas City Center
04:53PM 36.7486 -91.6969 16° North 430 495 32,000 780 Climbing Kansas City Center
04:54PM 36.8631 -91.6553 16° North 429 494 33,000 480 Climbing Kansas City Center
04:55PM 36.9761 -91.6147 16° North 424 488 33,000  Level Kansas City Center
04:56PM 37.0878 -91.5733 16° North 422 486 33,000  Level Kansas City Center
04:57PM 37.2261 -91.5208 17° North 428 493 33,000  Level Kansas City Center
04:58PM 37.3381 -91.4808 16° North 421 484 33,000  Level Kansas City Center
04:59PM 37.4481 -91.4397 17° North 415 478 33,000  Level Kansas City Center
05:00PM 37.5578 -91.3994 16° North 413 475 33,000  Level Kansas City Center
05:01PM 37.6661 -91.3597 16° North 408 470 33,000  Level Kansas City Center
05:02PM 37.7936 -91.3122 16° North 401 461 33,000  Level Kansas City Center
05:03PM 37.8989 -91.2733 16° North 397 457 33,000  Level Kansas City Center
05:04PM 38.0017 -91.2331 17° North 391 450 33,000  Level Kansas City Center
05:05PM 38.1036 -91.1942 17° North 386 444 33,000  Level Kansas City Center
05:06PM 38.2044 -91.1575 16° North 385 443 33,000  Level Kansas City Center
05:07PM 38.3067 -91.1181 17° North 385 443 33,000  Level Kansas City Center
05:08PM 38.4078 -91.0808 16° North 382 440 33,000  Level Kansas City Center
05:09PM 38.5303 -91.0339 17° North 381 438 33,000  Level Kansas City Center
05:11PM 38.6328 -90.9953 16° North 381 438 33,000  Level Kansas City Center
05:12PM 38.7358 -90.9514 18° North 385 443 33,000  Level Kansas City Center
05:13PM 38.8375 -90.8950 23° Northeast 390 449 33,000  Level Kansas City Center
05:14PM 38.9403 -90.8383 23° Northeast 394 453 33,000  Level Kansas City Center
05:15PM 39.0450 -90.7822 23° Northeast 399 459 33,000  Level Kansas City Center
05:16PM 39.1500 -90.7256 23° Northeast 404 465 33,000  Level Kansas City Center
05:17PM 39.2767 -90.6556 23° Northeast 410 472 33,000  Level Kansas City Center
05:18PM 39.3831 -90.5969 23° Northeast 413 475 33,000  Level Kansas City Center
05:19PM 39.4889 -90.5394 23° Northeast 413 475 33,000  Level Kansas City Center
05:20PM 39.5950 -90.4814 23° Northeast 412 474 33,000  Level Kansas City Center
05:21PM 39.7003 -90.4228 23° Northeast 412 474 33,000  Level Kansas City Center
05:22PM 39.8194 -90.3561 23° Northeast 410 472 33,000  Level Kansas City Center
05:23PM 39.9236 -90.2964 24° Northeast 408 470 33,000  Level Kansas City Center
05:24PM 40.0275 -90.2369 24° Northeast 408 470 33,000  Level Kansas City Center
05:25PM 40.1319 -90.1786 23° Northeast 408 470 33,000  Level Kansas City Center
05:26PM 40.2361 -90.1194 23° Northeast 406 467 33,000  Level Kansas City Center
05:27PM 40.3397 -90.0608 23° Northeast 405 466 33,000  Level Kansas City Center
05:28PM 40.4644 -89.9889 24° Northeast 406 467 33,000  Level Kansas City Center
05:29PM 40.5592 -89.9350 23° Northeast 404 465 33,000  Level Kansas City Center
05:30PM 40.6778 -89.8664 24° Northeast 408 470 33,000 -300 Level Kansas City Center
05:31PM 40.7822 -89.8064 24° Northeast 412 474 32,400 -1,680 Descending Kansas City Center
05:32PM 40.9042 -89.7369 23° Northeast 422 486 29,500 -2,520 Descending Chicago Center
05:33PM 41.0022 -89.6800 24° Northeast 423 487 27,200 -2,340 Descending Chicago Center
05:34PM 41.1103 -89.6175 24° Northeast 426 490 24,700 -1,860 Descending Chicago Center
05:35PM 41.1894 -89.5192 43° Northeast 400 460 23,400 -1,800 Descending Chicago Center
05:36PM 41.2478 -89.3706 62° Northeast 379 436 21,000 -2,160 Descending Chicago Center
05:37PM 41.2978 -89.2469 62° Northeast 379 436 18,900 -2,040 Descending Chicago Center
05:38PM 41.3508 -89.1144 62° Northeast 383 441 16,800 -2,040 Descending Chicago Center
05:40PM 41.4011 -88.9883 62° Northeast 388 447 14,800 -2,040 Descending Chicago Center
05:41PM 41.4497 -88.8664 62° Northeast 377 434 12,700 -1,800 Descending Chicago Center
05:42PM 41.4969 -88.7456 62° Northeast 373 429 11,100 -840 Descending Chicago Center
05:43PM 41.5472 -88.6183 62° Northeast 387 445 11,000 -60 Descending Chicago Center
05:44PM 41.6086 -88.4692 61° Northeast 388 447 11,000 -60 Level Chicago Center
05:45PM 41.6744 -88.3544 52° Northeast 389 448 10,900 -540 Descending Chicago Center
05:46PM 41.7311 -88.2572 52° Northeast 336 387 10,000 -960 Descending Chicago Center
05:47PM 41.7853 -88.1636 52° Northeast 320 368 9,000 -960 Descending Chicago Center
05:48PM 41.8442 -88.0775 47° Northeast 315 362 8,000 -960 Descending Chicago Center
05:49PM 41.9167 -87.9833 44° Northeast 299 344 7,000 -540 Descending Chicago TRACON
05:50PM 41.9500 -87.8833 66° East 329 379 7,000 -420 Level Chicago TRACON
05:51PM 42.0000 -87.7833 56° Northeast 253 291 6,200 -1,080 Descending Chicago TRACON
05:52PM 42.0333 -87.7000 62° Northeast 247 284 4,900 -1,380 Descending Chicago TRACON
05:53PM 42.0833 -87.6500 37° Northeast 253 291 3,600 -960 Descending Chicago TRACON
05:54PM 42.1000 -87.7167 289° West 194 223 3,000 -300 Descending Chicago TRACON
05:55PM 42.0667 -87.7667 228° Southwest 172 198 3,000  Level Chicago TRACON